CheckWX is a tool to help pilots better visualize weather data.  It is not intended as a substitute for an official pre-flight weather briefing.

15:28:50 UTC

KLCK TAF
Rickenbacker International Airport
Columbus, Ohio, USA
KLCK 171316Z 1713/1812 30010G18KT P6SM SCT040 BKN120 FM172300 30010KT P6SM BKN050 BKN120 FM180400 29005KT P6SM FEW050 FM180800 30003KT P6SM SKC

Oct-17@
13:00 UTC

Oct-17 @ 13:00 UTC

Oct-17@
23:00 UTC

Oct-17 @ 23:00 UTC

KLCK 171316Z 1713/1812 30010G18KT P6SM SCT040 BKN120
Wind
  • 300° at 10 KTS
  • {Gusting to 18 KTS
Cloud Levels
  • Scattered at 4,000' AGL
  • Broken at 12,000' AGL

Oct-17@
23:00 UTC

Oct-17 @ 23:00 UTC

Oct-18@
04:00 UTC

Oct-18 @ 04:00 UTC

FM172300 30010KT P6SM BKN050 BKN120

From

From Standard forecast or significant change

Wind
  • 300° at 10 KTS
Cloud Levels
  • Broken at 5,000' AGL
  • Broken at 12,000' AGL

Oct-18@
04:00 UTC

Oct-18 @ 04:00 UTC

Oct-18@
08:00 UTC

Oct-18 @ 08:00 UTC

FM180400 29005KT P6SM FEW050

From

From Standard forecast or significant change

Wind
  • 290° at 5 KTS
Cloud Levels
  • Few at 5,000' AGL

Oct-18@
08:00 UTC

Oct-18 @ 08:00 UTC

Oct-18@
12:00 UTC

Oct-18 @ 12:00 UTC

FM180800 30003KT P6SM SKC

From

From Standard forecast or significant change

Wind
  • 300° at 3 KTS
Cloud Levels
  • Clear skies